Time;durP1;ratioP1;P1;durP2;ratioP2;P2;SDS_P1;SDS_P2;PMS_P1;PMS_P2;Temp;Humidity;BMP_temperature;BMP_pressure;BME280_temperature;BME280_humidity;BME280_pressure;Samples;Min_cycle;Max_cycle;Signal;HPM_P1;HPM_P2
2021/07/12 00:00:07;;;;;;;8.73;8.03;;;;;;;18.11;88.80;101429.03;5015059;28;20789;-73
2021/07/12 00:02:32;;;;;;;9.13;8.33;;;;;;;18.59;88.92;101506.75;5013351;28;20780;-73
2021/07/12 00:04:57;;;;;;;10.23;9.40;;;;;;;18.38;89.22;101462.00;5013717;28;20555;-73
2021/07/12 00:07:23;;;;;;;10.23;9.37;;;;;;;18.21;89.07;101442.88;5008258;28;20642;-73
2021/07/12 00:09:48;;;;;;;9.80;9.00;;;;;;;18.59;88.88;101502.16;5017242;28;20189;-73
2021/07/12 00:12:14;;;;;;;9.80;8.90;;;;;;;18.50;88.80;101496.25;5015036;28;20204;-73
2021/07/12 00:14:39;;;;;;;10.57;9.53;;;;;;;18.11;88.75;101443.44;5011062;28;20541;-73
2021/07/12 00:17:04;;;;;;;10.47;9.57;;;;;;;18.58;88.98;101510.56;5015521;28;20569;-73
2021/07/12 00:19:30;;;;;;;9.73;8.93;;;;;;;18.29;89.07;101472.38;5012312;28;20268;-72
2021/07/12 00:21:58;;;;;;;11.17;10.13;;;;;;;18.46;89.66;101515.97;5014574;28;20246;-73
2021/07/12 00:24:23;;;;;;;11.30;10.03;;;;;;;18.39;89.40;101494.34;5016753;28;20209;-72
2021/07/12 00:26:48;;;;;;;10.07;9.27;;;;;;;18.23;88.91;101457.84;5017727;28;20455;-72
2021/07/12 00:29:14;;;;;;;10.63;9.73;;;;;;;18.05;89.04;101447.06;5013204;28;20246;-73
2021/07/12 00:31:39;;;;;;;9.33;8.63;;;;;;;18.24;89.05;101477.69;5012854;28;20216;-73
2021/07/12 00:34:05;;;;;;;10.93;9.90;;;;;;;18.42;88.50;101485.72;5017379;28;20724;-73
2021/07/12 00:36:31;;;;;;;10.90;9.80;;;;;;;18.28;88.55;101468.84;5017192;28;20184;-73
2021/07/12 00:38:56;;;;;;;10.30;9.30;;;;;;;18.16;88.09;101442.72;5015285;28;20885;-73
2021/07/12 00:41:22;;;;;;;10.83;9.83;;;;;;;18.14;88.52;101448.41;5012677;28;20460;-73
2021/07/12 00:43:48;;;;;;;10.67;9.70;;;;;;;17.81;88.31;101405.50;5013774;28;20180;-73
2021/07/12 00:46:13;;;;;;;10.37;9.37;;;;;;;18.14;88.77;101475.56;5016163;28;21001;-72
2021/07/12 00:48:39;;;;;;;10.20;9.30;;;;;;;18.14;88.58;101480.13;5018310;28;20185;-73
2021/07/12 00:51:05;;;;;;;10.33;9.53;;;;;;;18.05;88.66;101475.06;5018064;28;20201;-73
2021/07/12 00:53:31;;;;;;;10.00;9.10;;;;;;;18.03;88.40;101460.91;5019438;28;20177;-73
2021/07/12 00:55:58;;;;;;;10.17;9.37;;;;;;;17.73;88.24;101406.63;5017541;28;20447;-73
2021/07/12 00:58:26;;;;;;;10.47;9.57;;;;;;;17.92;88.30;101447.31;5016775;28;20573;-73
2021/07/12 01:00:55;;;;;;;9.80;9.10;;;;;;;18.11;87.90;101475.19;5016956;28;20431;-73
2021/07/12 01:03:22;;;;;;;10.70;9.60;;;;;;;18.06;88.45;101478.59;5012416;28;20965;-73
2021/07/12 01:05:47;;;;;;;10.67;9.67;;;;;;;17.28;87.84;101355.59;5018066;28;20471;-73
2021/07/12 01:08:13;;;;;;;10.40;9.60;;;;;;;17.91;88.56;101470.91;5016784;28;20499;-73
2021/07/12 01:10:41;;;;;;;10.90;9.90;;;;;;;17.79;89.36;101480.88;5018827;28;20629;-73
2021/07/12 01:13:17;;;;;;;11.53;10.37;;;;;;;17.76;88.98;101475.88;5015346;28;20184;-73
2021/07/12 01:15:49;;;;;;;10.20;9.40;;;;;;;17.88;88.42;101470.53;5019508;28;20419;-73
2021/07/12 01:18:39;;;;;;;10.57;9.67;;;;;;;17.88;88.30;101474.09;5020315;28;20942;-73
2021/07/12 01:21:24;;;;;;;10.73;9.73;;;;;;;17.97;88.49;101471.88;5012828;28;21019;-73
2021/07/12 01:24:23;;;;;;;10.73;9.83;;;;;;;17.92;88.85;101474.44;5016052;28;20439;-73
2021/07/12 01:27:15;;;;;;;12.03;10.77;;;;;;;17.86;89.60;101469.94;5020548;28;20455;-73
2021/07/12 01:30:16;;;;;;;10.70;9.80;;;;;;;18.00;88.18;101439.66;5015073;28;20958;-73
2021/07/12 01:33:12;;;;;;;10.50;9.70;;;;;;;18.07;88.34;101469.41;5013120;28;20463;-73
2021/07/12 01:35:55;;;;;;;11.70;10.50;;;;;;;17.83;88.90;101450.34;5014330;28;20976;-73
2021/07/12 01:38:46;;;;;;;11.33;10.30;;;;;;;17.91;88.43;101464.66;5020195;28;20466;-73
2021/07/12 01:41:39;;;;;;;12.30;11.10;;;;;;;17.96;88.24;101457.44;5014359;28;20551;-73
2021/07/12 01:44:12;;;;;;;10.37;9.50;;;;;;;17.60;88.12;101404.13;5016522;28;20475;-73
2021/07/12 01:46:47;;;;;;;10.60;9.67;;;;;;;17.92;88.66;101460.88;5015832;28;20478;-74
2021/07/12 01:49:24;;;;;;;10.07;9.17;;;;;;;18.00;87.97;101458.66;5017471;28;20436;-73
2021/07/12 01:51:59;;;;;;;10.20;9.30;;;;;;;17.89;88.30;101455.91;5016988;28;20489;-73
2021/07/12 01:54:30;;;;;;;10.67;9.57;;;;;;;17.94;88.12;101450.63;5015563;28;20424;-73
2021/07/12 01:57:02;;;;;;;11.60;10.50;;;;;;;17.76;88.29;101402.63;5015824;28;20525;-73
2021/07/12 01:59:44;;;;;;;10.57;9.67;;;;;;;17.33;88.53;101335.91;5017885;28;20439;-73
2021/07/12 02:02:11;;;;;;;11.10;10.13;;;;;;;17.82;88.33;101440.56;5012338;28;20467;-74
2021/07/12 02:04:40;;;;;;;10.93;9.90;;;;;;;17.88;88.71;101446.09;5018509;28;20599;-73
2021/07/12 02:07:06;;;;;;;11.27;10.17;;;;;;;17.30;89.33;101398.72;5015029;28;20993;-73
2021/07/12 02:09:33;;;;;;;9.83;8.93;;;;;;;17.22;88.40;101336.72;5017198;28;20434;-73
2021/07/12 02:12:00;;;;;;;10.83;9.90;;;;;;;17.61;88.52;101408.50;5016706;28;20463;-73
2021/07/12 02:14:27;;;;;;;11.20;10.30;;;;;;;17.06;88.32;101330.03;5020477;28;20435;-73
2021/07/12 02:16:54;;;;;;;9.53;8.80;;;;;;;17.57;88.29;101412.75;5015588;28;20801;-73
2021/07/12 02:19:20;;;;;;;10.33;9.53;;;;;;;17.73;88.07;101441.06;5014358;28;20450;-73
2021/07/12 02:21:51;;;;;;;10.63;9.73;;;;;;;17.79;87.59;101432.88;5014643;28;20463;-72
2021/07/12 02:24:21;;;;;;;11.00;10.10;;;;;;;16.78;88.13;101298.97;5017677;28;20299;-73
2021/07/12 02:26:49;;;;;;;10.83;9.93;;;;;;;17.39;87.57;101372.94;5017811;28;20452;-73
2021/07/12 02:29:16;;;;;;;10.07;9.17;;;;;;;17.64;87.99;101429.72;5020378;28;20431;-74
2021/07/12 02:31:42;;;;;;;11.23;10.17;;;;;;;17.52;88.48;101418.03;5018649;28;21021;-73
2021/07/12 02:34:08;;;;;;;11.40;10.37;;;;;;;17.45;88.36;101390.19;5017022;28;20440;-72
2021/07/12 02:36:35;;;;;;;11.37;10.37;;;;;;;17.61;88.48;101413.91;5019068;28;20912;-73
2021/07/12 02:39:01;;;;;;;11.10;10.20;;;;;;;17.67;87.90;101429.25;5016828;28;20200;-73
2021/07/12 02:41:28;;;;;;;10.83;9.83;;;;;;;17.29;88.07;101365.34;5016429;28;20462;-73
2021/07/12 02:43:55;;;;;;;10.30;9.47;;;;;;;17.68;87.90;101419.25;5014037;28;20439;-73
2021/07/12 02:46:23;;;;;;;8.23;7.47;;;;;;;17.09;88.76;101343.94;5015465;28;20530;-73
2021/07/12 02:48:49;;;;;;;7.60;7.00;;;;;;;17.35;88.93;101352.75;5016681;28;20474;-73
2021/07/12 02:51:17;;;;;;;6.20;5.80;;;;;;;17.26;88.30;101325.16;5027425;28;20472;-73
2021/07/12 02:53:49;;;;;;;6.40;5.90;;;;;;;17.30;88.43;101349.91;5015243;28;20451;-73
2021/07/12 02:56:15;;;;;;;5.80;5.40;;;;;;;17.01;89.32;101321.75;5014952;28;20577;-73
2021/07/12 02:58:40;;;;;;;5.30;4.90;;;;;;;17.40;90.33;101405.25;5018908;28;20456;-73
2021/07/12 03:01:06;;;;;;;4.97;4.67;;;;;;;16.83;89.88;101322.63;5012827;28;20204;-74
2021/07/12 03:03:31;;;;;;;5.10;4.70;;;;;;;16.63;89.54;101301.19;5012301;28;20188;-73
2021/07/12 03:06:05;;;;;;;4.13;3.83;;;;;;;16.84;89.40;101310.75;5017415;28;20548;-73
2021/07/12 03:08:38;;;;;;;4.50;4.20;;;;;;;17.09;88.67;101346.66;5011206;28;20174;-74
2021/07/12 03:11:08;;;;;;;5.47;5.07;;;;;;;17.30;89.24;101388.72;5015956;28;20474;-73
2021/07/12 03:14:00;;;;;;;5.50;5.10;;;;;;;17.27;88.46;101353.09;5017973;28;20544;-73
2021/07/12 03:16:26;;;;;;;5.60;5.10;;;;;;;17.35;88.31;101386.13;5012320;28;20451;-74
2021/07/12 03:18:59;;;;;;;6.07;5.60;;;;;;;16.93;88.40;101321.03;5015060;28;20447;-73
2021/07/12 03:21:26;;;;;;;6.77;6.27;;;;;;;16.94;88.56;101344.34;5010345;28;20849;-73
2021/07/12 03:23:54;;;;;;;7.50;6.90;;;;;;;17.12;87.99;101340.78;5017247;28;20878;-73
2021/07/12 03:26:22;;;;;;;7.87;7.17;;;;;;;17.17;88.23;101364.50;5015868;28;20794;-73
2021/07/12 03:28:50;;;;;;;8.33;7.50;;;;;;;17.20;89.09;101398.44;5014779;28;20471;-73
2021/07/12 03:31:20;;;;;;;8.27;7.60;;;;;;;17.15;89.49;101399.13;5010424;28;20494;-74
2021/07/12 03:33:46;;;;;;;8.13;7.53;;;;;;;17.29;89.25;101399.78;5016933;28;20543;-74
2021/07/12 03:36:12;;;;;;;8.60;7.90;;;;;;;17.11;88.41;101349.16;5019427;28;20439;-73
2021/07/12 03:38:39;;;;;;;8.70;7.90;;;;;;;17.38;88.19;101384.84;5014372;28;20555;-73
2021/07/12 03:41:06;;;;;;;8.30;7.47;;;;;;;17.36;88.39;101395.09;5018149;28;20476;-73
2021/07/12 03:43:32;;;;;;;9.63;8.70;;;;;;;17.43;87.83;101395.00;5017413;28;20451;-73
2021/07/12 03:46:01;;;;;;;8.70;8.00;;;;;;;17.33;88.43;101388.25;5013817;28;20829;-73
2021/07/12 03:48:37;;;;;;;8.73;8.00;;;;;;;17.34;88.53;101389.91;5014130;28;20892;-73
2021/07/12 03:51:04;;;;;;;11.07;9.97;;;;;;;17.30;88.89;101391.44;5013142;28;20463;-73
2021/07/12 03:53:32;;;;;;;10.87;9.83;;;;;;;17.15;88.30;101359.31;5011869;28;20447;-73
2021/07/12 03:55:57;;;;;;;10.80;9.90;;;;;;;16.94;88.23;101311.84;5014867;28;20435;-73
2021/07/12 03:58:23;;;;;;;13.33;10.80;;;;;;;17.19;88.52;101346.13;5012752;28;20823;-73
2021/07/12 04:00:48;;;;;;;15.47;13.97;;;;;;;17.46;89.55;101378.28;5013434;28;20304;-73
2021/07/12 04:03:13;;;;;;;17.27;15.67;;;;;;;17.21;89.66;101316.06;5017048;28;20558;-73
2021/07/12 04:05:39;;;;;;;17.30;15.50;;;;;;;17.31;89.95;101346.97;5014923;28;20220;-73
2021/07/12 04:08:05;;;;;;;17.40;15.70;;;;;;;17.03;90.77;101304.22;5018355;28;20184;-73
2021/07/12 04:10:30;;;;;;;16.30;14.80;;;;;;;17.11;90.98;101306.59;5011163;28;20557;-73
2021/07/12 04:12:57;;;;;;;16.93;15.33;;;;;;;17.23;91.08;101325.63;5016800;28;20212;-73
2021/07/12 04:15:23;;;;;;;15.10;13.80;;;;;;;17.52;90.62;101369.19;5014062;28;20177;-73
2021/07/12 04:17:48;;;;;;;14.83;13.43;;;;;;;17.44;91.06;101354.06;5013729;28;20454;-73
2021/07/12 04:20:14;;;;;;;15.00;13.60;;;;;;;17.50;91.56;101382.16;5011512;28;20193;-74
2021/07/12 04:22:40;;;;;;;13.33;12.23;;;;;;;17.39;91.20;101367.53;5013768;28;20275;-73
2021/07/12 04:25:07;;;;;;;13.17;12.07;;;;;;;17.32;91.10;101339.66;5019399;28;20458;-72
2021/07/12 04:27:32;;;;;;;12.27;11.27;;;;;;;17.58;91.05;101385.38;5020749;28;20207;-73
2021/07/12 04:29:58;;;;;;;11.73;10.80;;;;;;;17.54;91.12;101369.81;5015736;28;20435;-73
2021/07/12 04:32:24;;;;;;;12.13;11.13;;;;;;;17.68;90.58;101392.13;5020093;28;20726;-74
2021/07/12 04:34:49;;;;;;;11.33;10.43;;;;;;;17.35;91.43;101359.00;5015538;28;20231;-73
2021/07/12 04:37:15;;;;;;;12.63;11.63;;;;;;;16.76;91.59;101279.38;5017114;28;20209;-73
2021/07/12 04:39:40;;;;;;;11.47;10.57;;;;;;;17.44;91.81;101385.81;5016579;28;20263;-73
2021/07/12 04:42:06;;;;;;;11.83;10.83;;;;;;;17.36;91.00;101354.44;5027975;28;20306;-74
2021/07/12 04:44:31;;;;;;;11.60;10.70;;;;;;;17.45;90.42;101344.91;5015606;28;20208;-74
2021/07/12 04:46:59;;;;;;;13.30;12.20;;;;;;;17.34;90.46;101322.13;5021469;28;20231;-74
2021/07/12 04:49:24;;;;;;;14.20;13.00;;;;;;;17.58;91.73;101388.06;5019323;28;20640;-73
2021/07/12 04:51:50;;;;;;;14.97;13.60;;;;;;;17.29;91.97;101334.72;5014014;28;20475;-74
2021/07/12 04:54:15;;;;;;;13.57;12.47;;;;;;;17.30;91.30;101312.81;5022519;28;20192;-74
2021/07/12 04:56:41;;;;;;;13.43;12.20;;;;;;;17.73;91.27;101352.38;5019902;28;20184;-74
2021/07/12 04:59:09;;;;;;;14.73;13.43;;;;;;;17.51;91.04;101297.03;5022405;28;20184;-73
2021/07/12 05:01:36;;;;;;;16.17;14.73;;;;;;;17.84;91.48;101362.44;5020263;28;20646;-73
2021/07/12 05:04:03;;;;;;;15.33;13.90;;;;;;;17.73;91.08;101322.53;5021376;28;24591;-73
2021/07/12 05:06:29;;;;;;;16.83;15.43;;;;;;;17.73;91.35;101317.09;5018423;28;20455;-74
2021/07/12 05:08:55;;;;;;;16.10;14.60;;;;;;;18.03;91.13;101373.22;5019998;28;20497;-73
2021/07/12 05:11:21;;;;;;;18.27;16.37;;;;;;;17.58;91.05;101300.47;5021091;28;20295;-73
2021/07/12 05:13:47;;;;;;;17.80;16.20;;;;;;;17.25;91.62;101261.16;5020408;28;20530;-73
2021/07/12 05:16:13;;;;;;;19.93;18.13;;;;;;;18.03;91.22;101363.19;5019934;28;20924;-74
2021/07/12 05:18:38;;;;;;;22.03;17.90;;;;;;;17.62;90.20;101286.22;5021227;28;20450;-74
2021/07/12 05:21:05;;;;;;;19.97;18.17;;;;;;;17.84;91.43;101334.50;5017121;28;20217;-73
2021/07/12 05:23:30;;;;;;;19.43;17.43;;;;;;;18.13;91.41;101361.75;5019885;28;21048;-73
2021/07/12 05:25:56;;;;;;;19.60;17.80;;;;;;;17.61;91.37;101273.69;5020590;28;20481;-74
2021/07/12 05:28:24;;;;;;;20.30;18.40;;;;;;;18.16;91.06;101336.84;5018451;28;20560;-73
2021/07/12 05:30:50;;;;;;;18.93;17.30;;;;;;;18.26;91.27;101342.53;5018859;28;20219;-74
2021/07/12 05:33:16;;;;;;;20.73;18.73;;;;;;;17.87;91.17;101293.31;5017924;28;20850;-73
2021/07/12 05:35:41;;;;;;;20.40;18.53;;;;;;;18.10;91.79;101329.66;5015403;28;20447;-74
2021/07/12 05:38:07;;;;;;;21.67;19.60;;;;;;;18.23;91.50;101345.72;5019068;28;20288;-74
2021/07/12 05:40:33;;;;;;;20.90;19.07;;;;;;;18.28;91.51;101348.53;5020927;28;20185;-73
2021/07/12 05:42:59;;;;;;;21.83;19.63;;;;;;;18.05;90.99;101295.91;5022359;28;20468;-74
2021/07/12 05:45:25;;;;;;;22.07;20.03;;;;;;;18.06;91.60;101313.03;5016764;28;20477;-74
2021/07/12 05:47:50;;;;;;;21.70;19.70;;;;;;;18.29;91.32;101342.03;5021172;28;20189;-74
2021/07/12 05:50:16;;;;;;;22.73;20.43;;;;;;;18.16;91.29;101302.38;5015633;28;20262;-73
2021/07/12 05:52:41;;;;;;;24.30;22.00;;;;;;;17.85;91.94;101257.47;5019362;28;20344;-74
2021/07/12 05:55:08;;;;;;;23.27;21.03;;;;;;;18.43;91.64;101353.50;5018689;28;20271;-74
2021/07/12 05:57:34;;;;;;;25.00;22.70;;;;;;;18.22;91.97;101331.28;5020402;28;20767;-74
2021/07/12 05:59:59;;;;;;;26.60;23.97;;;;;;;18.41;92.29;101347.47;5023130;28;20533;-74
2021/07/12 06:02:24;;;;;;;25.87;23.50;;;;;;;18.07;92.46;101299.19;5017793;28;20287;-73
2021/07/12 06:04:50;;;;;;;24.57;22.07;;;;;;;17.98;92.33;101278.09;5021909;28;20342;-74
2021/07/12 06:07:15;;;;;;;24.60;22.23;;;;;;;18.17;91.30;101285.03;5023989;28;20184;-74
2021/07/12 06:09:41;;;;;;;25.47;23.03;;;;;;;18.42;92.28;101341.78;5019925;28;20213;-74
2021/07/12 06:12:06;;;;;;;23.97;21.73;;;;;;;17.94;92.97;101264.19;5022537;28;20286;-74
2021/07/12 06:14:32;;;;;;;25.13;22.80;;;;;;;17.78;92.65;101233.16;5020756;28;20185;-73
2021/07/12 06:16:58;;;;;;;24.63;22.30;;;;;;;18.53;92.20;101346.38;5018555;28;20191;-74
2021/07/12 06:19:23;;;;;;;26.50;23.90;;;;;;;18.21;92.65;101293.53;5017564;28;20184;-73
2021/07/12 06:21:48;;;;;;;22.83;20.73;;;;;;;18.28;91.64;101270.63;5018243;28;20759;-74
2021/07/12 06:24:14;;;;;;;23.23;21.10;;;;;;;18.71;91.72;101330.97;5018995;28;20258;-74
2021/07/12 06:26:39;;;;;;;25.23;22.77;;;;;;;18.36;91.45;101269.41;5018471;28;20204;-73
2021/07/12 06:29:05;;;;;;;24.70;22.23;;;;;;;18.74;91.54;101325.91;5020852;28;20188;-74
2021/07/12 06:31:30;;;;;;;25.73;23.33;;;;;;;18.51;90.96;101293.34;5020442;28;20212;-73
2021/07/12 06:33:55;;;;;;;30.03;27.17;;;;;;;18.81;91.50;101341.25;5017255;28;20193;-74
2021/07/12 06:36:21;;;;;;;27.40;24.80;;;;;;;18.88;91.07;101322.91;5019412;28;20658;-73
2021/07/12 06:38:46;;;;;;;28.33;25.47;;;;;;;18.69;90.93;101278.78;5015924;28;20696;-74
2021/07/12 06:41:12;;;;;;;28.47;25.77;;;;;;;19.09;90.93;101344.00;5020036;28;20217;-74
2021/07/12 06:43:37;;;;;;;27.00;24.47;;;;;;;19.22;90.70;101331.16;5018608;28;20259;-73
2021/07/12 06:46:03;;;;;;;29.33;26.37;;;;;;;19.11;90.70;101306.50;5019050;28;20212;-73
2021/07/12 06:48:28;;;;;;;24.73;22.37;;;;;;;19.20;90.35;101306.91;5020564;28;20184;-73
2021/07/12 06:50:55;;;;;;;25.67;23.20;;;;;;;19.45;89.48;101341.09;5020573;28;20219;-74
2021/07/12 06:53:20;;;;;;;29.33;26.53;;;;;;;18.68;90.89;101253.47;5018320;28;20207;-73
2021/07/12 06:55:45;;;;;;;28.13;25.40;;;;;;;19.42;89.99;101345.94;5017702;28;20435;-73
2021/07/12 06:58:12;;;;;;;25.93;23.33;;;;;;;19.56;90.32;101324.69;5016878;28;20696;-74
2021/07/12 07:00:39;;;;;;;27.03;24.60;;;;;;;19.51;88.71;101319.16;5011117;28;20958;-73
2021/07/12 07:03:04;;;;;;;32.47;29.37;;;;;;;19.45;89.03;101336.47;5015981;28;20489;-73
2021/07/12 07:05:30;;;;;;;30.67;27.87;;;;;;;19.14;89.85;101344.06;5017074;28;20467;-74
2021/07/12 07:07:55;;;;;;;31.13;28.20;;;;;;;18.96;90.31;101289.91;5016036;28;20197;-74
2021/07/12 07:10:21;;;;;;;29.17;26.30;;;;;;;19.02;89.34;101278.06;5016272;28;20192;-73
2021/07/12 07:12:46;;;;;;;32.57;29.50;;;;;;;19.41;88.92;101335.28;5013955;28;20653;-73
2021/07/12 07:15:12;;;;;;;33.57;30.47;;;;;;;19.30;89.27;101341.66;5018583;28;20188;-74
2021/07/12 07:17:38;;;;;;;35.67;32.10;;;;;;;19.26;89.31;101346.72;5016091;28;20694;-73
2021/07/12 07:20:04;;;;;;;30.57;27.80;;;;;;;19.23;89.24;101349.13;5031876;28;21501;-73
2021/07/12 07:22:30;;;;;;;31.87;28.87;;;;;;;19.26;89.31;101341.28;5014918;28;20427;-73
2021/07/12 07:24:55;;;;;;;24.30;21.97;;;;;;;18.85;88.38;101231.00;5014178;28;20554;-73
2021/07/12 07:27:21;;;;;;;25.73;23.20;;;;;;;19.20;88.17;101277.81;5016847;28;20192;-73
2021/07/12 07:29:47;;;;;;;26.27;23.77;;;;;;;19.27;88.19;101283.13;5017097;28;20208;-73
2021/07/12 07:32:12;;;;;;;22.80;20.60;;;;;;;19.78;87.97;101335.66;5025115;28;20621;-73
2021/07/12 07:34:38;;;;;;;23.03;20.73;;;;;;;19.86;87.01;101329.00;5022272;28;20195;-73
2021/07/12 07:37:03;;;;;;;20.90;18.90;;;;;;;19.43;86.69;101243.38;5018069;28;20184;-73
2021/07/12 07:39:29;;;;;;;23.30;21.10;;;;;;;19.87;87.86;101344.25;5016687;28;20202;-73
2021/07/12 07:41:55;;;;;;;25.67;23.33;;;;;;;19.46;87.20;101263.84;5015580;28;20688;-73
2021/07/12 07:44:21;;;;;;;25.50;23.10;;;;;;;19.20;86.61;101230.78;5019903;28;20212;-73
2021/07/12 07:46:47;;;;;;;19.97;18.20;;;;;;;19.39;86.28;101215.88;5019049;28;20502;-73
2021/07/12 07:49:12;;;;;;;24.23;21.97;;;;;;;19.99;85.92;101347.72;5018012;28;20206;-73
2021/07/12 07:51:38;;;;;;;23.13;21.03;;;;;;;19.80;85.28;101300.06;5017749;28;20201;-73
2021/07/12 07:54:04;;;;;;;20.87;18.87;;;;;;;20.23;85.64;101331.16;5020125;28;20192;-73
2021/07/12 07:56:30;;;;;;;25.50;23.10;;;;;;;19.79;86.24;101265.75;5014740;28;20808;-73
2021/07/12 07:58:55;;;;;;;22.97;20.77;;;;;;;20.33;86.54;101336.75;5021799;28;20458;-73
2021/07/12 08:01:21;;;;;;;24.73;22.50;;;;;;;19.53;85.85;101216.34;5032364;28;20215;-73
2021/07/12 08:03:46;;;;;;;27.20;24.60;;;;;;;19.80;86.20;101302.78;5022992;28;20227;-73
2021/07/12 08:06:12;;;;;;;23.37;21.07;;;;;;;19.95;85.81;101283.94;5021808;28;20208;-73
2021/07/12 08:08:37;;;;;;;21.87;19.87;;;;;;;20.23;85.29;101310.19;5018754;28;20290;-73
2021/07/12 08:11:03;;;;;;;23.30;21.20;;;;;;;20.08;85.17;101302.66;5020285;28;20235;-73
2021/07/12 08:13:28;;;;;;;25.50;23.00;;;;;;;20.17;85.61;101285.88;5016863;28;20247;-73
2021/07/12 08:15:54;;;;;;;31.13;28.33;;;;;;;19.70;85.52;101264.50;5018979;28;20276;-73
2021/07/12 08:18:19;;;;;;;28.00;25.10;;;;;;;19.90;84.91;101253.91;5014136;28;20270;-73
2021/07/12 08:20:45;;;;;;;24.77;22.43;;;;;;;20.48;84.36;101331.53;5018498;28;20193;-73
2021/07/12 08:23:13;;;;;;;30.87;27.97;;;;;;;20.65;83.67;101327.91;5014990;28;20230;-73
2021/07/12 08:25:39;;;;;;;21.20;19.30;;;;;;;20.66;83.18;101289.50;5019283;28;20467;-73
2021/07/12 08:28:05;;;;;;;27.63;24.97;;;;;;;20.50;83.62;101302.09;5023969;28;20443;-73
2021/07/12 08:30:31;;;;;;;23.40;21.10;;;;;;;20.95;83.11;101360.19;5026771;28;20188;-73
2021/07/12 08:32:56;;;;;;;26.30;23.90;;;;;;;20.82;81.92;101328.66;5023353;28;20513;-73
2021/07/12 08:35:23;;;;;;;27.87;25.13;;;;;;;20.68;81.93;101314.59;5022153;28;20255;-73
2021/07/12 08:37:49;;;;;;;21.40;19.40;;;;;;;20.71;81.40;101272.38;5014418;28;20293;-73
2021/07/12 08:40:16;;;;;;;24.20;22.00;;;;;;;21.02;81.60;101338.97;5034473;28;20467;-73
2021/07/12 08:42:42;;;;;;;22.80;20.63;;;;;;;20.96;81.50;101329.09;5015422;28;20569;-73
2021/07/12 08:45:08;;;;;;;25.63;23.23;;;;;;;20.32;82.63;101250.66;5020143;28;20463;-73
2021/07/12 08:47:34;;;;;;;21.03;19.00;;;;;;;21.15;81.88;101333.13;5020356;28;20268;-73
2021/07/12 08:49:59;;;;;;;20.33;18.43;;;;;;;21.05;81.18;101299.47;5029869;28;20475;-73
2021/07/12 08:52:24;;;;;;;18.30;16.70;;;;;;;20.19;80.48;101132.03;5037012;28;20216;-73
2021/07/12 08:54:50;;;;;;;18.77;17.10;;;;;;;20.31;80.30;101146.31;5024574;28;20184;-73
2021/07/12 08:57:15;;;;;;;18.23;16.70;;;;;;;21.54;79.89;101338.41;5021450;28;20188;-73
2021/07/12 08:59:41;;;;;;;19.80;18.00;;;;;;;21.13;80.96;101324.38;5021238;28;20204;-74
2021/07/12 09:02:13;;;;;;;21.20;19.30;;;;;;;21.10;80.99;101324.06;5021768;28;20208;-74
2021/07/12 09:04:47;;;;;;;20.83;18.90;;;;;;;21.26;80.34;101344.94;5019292;28;20533;-73
2021/07/12 09:07:19;;;;;;;20.40;18.60;;;;;;;20.84;80.72;101288.34;5022760;28;20959;-73
2021/07/12 09:10:06;;;;;;;18.03;16.37;;;;;;;21.01;82.45;101325.63;5022838;28;20449;-73
2021/07/12 09:12:42;;;;;;;21.70;19.70;;;;;;;20.91;80.57;101296.31;5019671;28;20458;-73
2021/07/12 09:15:16;;;;;;;19.83;18.10;;;;;;;21.12;81.54;101311.00;5014500;28;20927;-73
2021/07/12 09:17:47;;;;;;;19.63;17.73;;;;;;;21.24;81.00;101306.19;5021795;28;20470;-74
2021/07/12 09:20:32;;;;;;;18.07;16.47;;;;;;;21.19;80.21;101301.50;5019719;28;20877;-73
2021/07/12 09:22:59;;;;;;;19.50;17.80;;;;;;;20.94;81.57;101266.66;5020444;28;20558;-74
2021/07/12 09:25:31;;;;;;;17.93;16.27;;;;;;;21.20;80.89;101303.19;5025736;28;20530;-74
2021/07/12 09:27:56;;;;;;;17.03;15.43;;;;;;;21.18;81.93;101291.69;5017328;28;20485;-73
2021/07/12 09:30:22;;;;;;;20.40;18.60;;;;;;;20.67;82.12;101249.44;5019749;28;20471;-74
2021/07/12 09:32:52;;;;;;;19.10;17.40;;;;;;;21.12;81.10;101291.91;5023137;28;20820;-73
2021/07/12 09:35:19;;;;;;;18.30;16.70;;;;;;;20.94;80.87;101233.09;5014465;28;20177;-73
2021/07/12 09:37:57;;;;;;;18.13;16.30;;;;;;;21.36;80.87;101282.31;5017793;28;20888;-73
2021/07/12 09:40:23;;;;;;;18.67;17.00;;;;;;;21.41;79.55;101270.66;5020706;28;20450;-73
2021/07/12 09:42:51;;;;;;;17.93;16.33;;;;;;;21.35;79.31;101245.19;5018084;28;20458;-73
2021/07/12 09:45:18;;;;;;;18.20;16.50;;;;;;;21.35;79.95;101253.38;5016290;28;20335;-73
2021/07/12 09:47:46;;;;;;;18.60;17.00;;;;;;;21.20;79.56;101231.41;5015113;28;20546;-73
2021/07/12 09:50:13;;;;;;;19.10;17.30;;;;;;;21.41;79.17;101241.44;5019382;28;20447;-73
2021/07/12 09:52:52;;;;;;;18.40;16.70;;;;;;;21.64;79.42;101244.88;5017411;28;20562;-73
2021/07/12 09:55:23;;;;;;;17.93;16.33;;;;;;;21.69;79.19;101241.34;5016386;28;20475;-72
2021/07/12 09:58:15;;;;;;;18.80;17.00;;;;;;;21.78;78.35;101248.78;5020135;28;20451;-73
2021/07/12 10:00:51;;;;;;;19.93;17.97;;;;;;;21.75;79.30;101248.47;5016290;28;20786;-73
2021/07/12 10:03:19;;;;;;;18.87;17.07;;;;;;;21.63;78.94;101230.38;5018329;28;20514;-74
2021/07/12 10:05:45;;;;;;;22.20;19.70;;;;;;;21.82;78.15;101249.91;5017136;28;20970;-74
2021/07/12 10:08:12;;;;;;;18.50;16.73;;;;;;;21.87;77.43;101236.28;5021951;28;20482;-72
2021/07/12 10:10:37;;;;;;;20.37;18.47;;;;;;;21.92;78.65;101234.66;5019529;28;20444;-73
2021/07/12 10:13:03;;;;;;;19.13;17.30;;;;;;;22.00;78.49;101250.53;5020160;28;20796;-73
2021/07/12 10:15:28;;;;;;;20.47;18.47;;;;;;;22.14;78.03;101246.25;5019922;28;20284;-73
2021/07/12 10:17:57;;;;;;;20.10;16.97;;;;;;;21.77;77.89;101199.91;5018933;28;20196;-73
2021/07/12 10:20:23;;;;;;;24.97;22.17;;;;;;;21.53;75.80;101215.88;5018522;28;20192;-73
2021/07/12 10:22:49;;;;;;;17.90;16.17;;;;;;;21.68;76.76;101180.47;5020234;28;20459;-73
2021/07/12 10:25:18;;;;;;;19.53;16.93;;;;;;;21.74;76.40;101192.25;5018456;28;20460;-74
2021/07/12 10:27:53;;;;;;;16.17;14.57;;;;;;;22.09;76.14;101243.47;5023118;28;20473;-73
2021/07/12 10:30:25;;;;;;;16.60;15.10;;;;;;;22.12;76.40;101242.94;5016864;28;20434;-73
2021/07/12 10:32:54;;;;;;;16.73;15.00;;;;;;;22.23;76.89;101249.31;5019793;28;20467;-73
2021/07/12 10:35:40;;;;;;;18.33;16.43;;;;;;;22.19;76.87;101249.03;5018233;28;20463;-74
2021/07/12 10:38:07;;;;;;;17.37;15.67;;;;;;;22.16;76.84;101249.53;5020067;28;20832;-73
2021/07/12 10:40:50;;;;;;;18.07;16.37;;;;;;;21.99;77.37;101248.91;5019162;28;20435;-73
2021/07/12 10:43:34;;;;;;;17.70;15.87;;;;;;;22.20;76.24;101249.84;5020051;28;20465;-73
2021/07/12 10:46:00;;;;;;;21.47;19.33;;;;;;;22.03;75.78;101226.25;5019166;28;20466;-73
2021/07/12 10:48:42;;;;;;;19.00;17.20;;;;;;;22.16;76.05;101222.22;5019761;28;20542;-73
2021/07/12 10:51:19;;;;;;;19.33;17.43;;;;;;;21.97;75.52;101150.84;5016265;28;20463;-73
2021/07/12 10:54:07;;;;;;;20.00;18.00;;;;;;;22.74;74.92;101238.56;5017916;28;20435;-73
2021/07/12 10:56:41;;;;;;;18.13;16.43;;;;;;;22.73;72.77;101239.63;5014801;28;21000;-73
2021/07/12 10:59:08;;;;;;;19.80;17.83;;;;;;;22.57;74.01;101205.97;5017857;28;20528;-74
2021/07/12 11:01:40;;;;;;;19.70;17.10;;;;;;;22.94;72.60;101229.53;5016673;28;20593;-74
2021/07/12 11:04:34;;;;;;;19.13;17.27;;;;;;;22.81;73.89;101233.63;5013007;28;20526;-72
2021/07/12 11:07:00;;;;;;;18.97;16.97;;;;;;;22.93;73.78;101227.91;5008314;28;20517;-75
2021/07/12 11:10:02;;;;;;;13.90;12.60;;;;;;;22.42;72.65;101193.09;5017386;28;20440;-75
2021/07/12 11:12:31;;;;;;;13.13;11.90;;;;;;;22.97;72.04;101221.66;5010822;28;20462;-74
2021/07/12 11:15:15;;;;;;;9.27;8.47;;;;;;;23.10;69.67;101222.22;5029628;28;20858;-73
2021/07/12 11:18:10;;;;;;;9.80;8.90;;;;;;;23.08;70.25;101221.66;5020127;28;21001;-73